sensor_id;sensor_type;location;lat;lon;timestamp;P1;durP1;ratioP1;P2;durP2;ratioP2
17864;SDS011;9058;52.018;4.202;2024-01-10T00:00:17;3.90;;;2.73;;
17864;SDS011;9058;52.018;4.202;2024-01-10T00:02:43;2.80;;;2.50;;
17864;SDS011;9058;52.018;4.202;2024-01-10T00:05:09;2.97;;;2.30;;
17864;SDS011;9058;52.018;4.202;2024-01-10T00:07:36;3.70;;;2.60;;
17864;SDS011;9058;52.018;4.202;2024-01-10T00:10:02;3.23;;;2.70;;
17864;SDS011;9058;52.018;4.202;2024-01-10T00:12:30;2.80;;;2.53;;
17864;SDS011;9058;52.018;4.202;2024-01-10T00:15:01;2.60;;;2.20;;
17864;SDS011;9058;52.018;4.202;2024-01-10T00:17:27;2.20;;;2.10;;
17864;SDS011;9058;52.018;4.202;2024-01-10T00:19:53;3.80;;;3.03;;
17864;SDS011;9058;52.018;4.202;2024-01-10T00:22:20;3.37;;;2.30;;
17864;SDS011;9058;52.018;4.202;2024-01-10T00:24:46;3.17;;;2.40;;
17864;SDS011;9058;52.018;4.202;2024-01-10T00:27:12;4.43;;;2.77;;
17864;SDS011;9058;52.018;4.202;2024-01-10T00:29:40;2.60;;;2.40;;
17864;SDS011;9058;52.018;4.202;2024-01-10T00:32:06;2.80;;;2.57;;
17864;SDS011;9058;52.018;4.202;2024-01-10T00:34:33;3.73;;;2.80;;
17864;SDS011;9058;52.018;4.202;2024-01-10T00:36:59;3.70;;;2.63;;
17864;SDS011;9058;52.018;4.202;2024-01-10T00:39:27;3.87;;;3.03;;
17864;SDS011;9058;52.018;4.202;2024-01-10T00:41:54;3.63;;;2.37;;
17864;SDS011;9058;52.018;4.202;2024-01-10T00:44:21;4.03;;;3.10;;
17864;SDS011;9058;52.018;4.202;2024-01-10T00:46:49;3.20;;;2.63;;
17864;SDS011;9058;52.018;4.202;2024-01-10T00:49:15;3.30;;;3.00;;
17864;SDS011;9058;52.018;4.202;2024-01-10T00:51:41;3.30;;;3.00;;
17864;SDS011;9058;52.018;4.202;2024-01-10T00:54:07;3.53;;;2.80;;
17864;SDS011;9058;52.018;4.202;2024-01-10T00:56:34;8.90;;;2.77;;
17864;SDS011;9058;52.018;4.202;2024-01-10T00:59:00;3.23;;;2.20;;
17864;SDS011;9058;52.018;4.202;2024-01-10T01:01:26;4.80;;;2.83;;
17864;SDS011;9058;52.018;4.202;2024-01-10T01:03:54;4.93;;;3.33;;
17864;SDS011;9058;52.018;4.202;2024-01-10T01:06:20;5.13;;;2.90;;
17864;SDS011;9058;52.018;4.202;2024-01-10T01:08:48;2.60;;;2.40;;
17864;SDS011;9058;52.018;4.202;2024-01-10T01:11:14;3.53;;;2.93;;
17864;SDS011;9058;52.018;4.202;2024-01-10T01:13:40;4.10;;;2.80;;
17864;SDS011;9058;52.018;4.202;2024-01-10T01:16:07;2.93;;;2.53;;
17864;SDS011;9058;52.018;4.202;2024-01-10T01:18:33;3.60;;;2.90;;
17864;SDS011;9058;52.018;4.202;2024-01-10T01:21:01;2.73;;;2.37;;
17864;SDS011;9058;52.018;4.202;2024-01-10T01:23:28;3.53;;;2.63;;
17864;SDS011;9058;52.018;4.202;2024-01-10T01:25:54;3.97;;;3.23;;
17864;SDS011;9058;52.018;4.202;2024-01-10T01:28:20;4.70;;;2.70;;
17864;SDS011;9058;52.018;4.202;2024-01-10T01:30:47;2.97;;;2.57;;
17864;SDS011;9058;52.018;4.202;2024-01-10T01:33:13;4.73;;;3.00;;
17864;SDS011;9058;52.018;4.202;2024-01-10T01:35:39;4.17;;;2.43;;
17864;SDS011;9058;52.018;4.202;2024-01-10T01:38:07;4.50;;;2.90;;
17864;SDS011;9058;52.018;4.202;2024-01-10T01:40:33;4.20;;;2.93;;
17864;SDS011;9058;52.018;4.202;2024-01-10T01:43:00;4.43;;;3.20;;
17864;SDS011;9058;52.018;4.202;2024-01-10T01:45:26;5.00;;;3.10;;
17864;SDS011;9058;52.018;4.202;2024-01-10T01:47:52;3.90;;;2.93;;
17864;SDS011;9058;52.018;4.202;2024-01-10T01:50:19;5.10;;;3.10;;
17864;SDS011;9058;52.018;4.202;2024-01-10T01:52:45;5.20;;;3.27;;
17864;SDS011;9058;52.018;4.202;2024-01-10T01:55:13;3.47;;;2.83;;
17864;SDS011;9058;52.018;4.202;2024-01-10T01:57:39;3.33;;;2.80;;
17864;SDS011;9058;52.018;4.202;2024-01-10T02:00:06;4.83;;;3.40;;
17864;SDS011;9058;52.018;4.202;2024-01-10T02:02:33;3.73;;;3.00;;
17864;SDS011;9058;52.018;4.202;2024-01-10T02:05:00;2.97;;;2.43;;
17864;SDS011;9058;52.018;4.202;2024-01-10T02:07:26;4.13;;;2.77;;
17864;SDS011;9058;52.018;4.202;2024-01-10T02:09:53;3.57;;;3.23;;
17864;SDS011;9058;52.018;4.202;2024-01-10T02:12:21;3.73;;;3.20;;
17864;SDS011;9058;52.018;4.202;2024-01-10T02:14:48;3.97;;;3.30;;
17864;SDS011;9058;52.018;4.202;2024-01-10T02:17:14;4.27;;;3.23;;
17864;SDS011;9058;52.018;4.202;2024-01-10T02:19:41;5.30;;;3.13;;
17864;SDS011;9058;52.018;4.202;2024-01-10T02:22:07;5.23;;;3.67;;
17864;SDS011;9058;52.018;4.202;2024-01-10T02:24:36;4.93;;;2.97;;
17864;SDS011;9058;52.018;4.202;2024-01-10T02:27:04;5.53;;;3.30;;
17864;SDS011;9058;52.018;4.202;2024-01-10T02:29:31;2.63;;;2.40;;
17864;SDS011;9058;52.018;4.202;2024-01-10T02:31:57;2.90;;;2.40;;
17864;SDS011;9058;52.018;4.202;2024-01-10T02:34:23;4.50;;;3.37;;
17864;SDS011;9058;52.018;4.202;2024-01-10T02:36:50;5.07;;;3.67;;
17864;SDS011;9058;52.018;4.202;2024-01-10T02:39:16;4.83;;;3.33;;
17864;SDS011;9058;52.018;4.202;2024-01-10T02:41:43;3.90;;;3.50;;
17864;SDS011;9058;52.018;4.202;2024-01-10T02:44:11;3.53;;;3.07;;
17864;SDS011;9058;52.018;4.202;2024-01-10T02:46:39;3.90;;;3.17;;
17864;SDS011;9058;52.018;4.202;2024-01-10T02:49:05;5.60;;;3.30;;
17864;SDS011;9058;52.018;4.202;2024-01-10T02:51:31;3.97;;;3.57;;
17864;SDS011;9058;52.018;4.202;2024-01-10T02:53:58;4.93;;;3.57;;
17864;SDS011;9058;52.018;4.202;2024-01-10T02:56:25;4.60;;;3.70;;
17864;SDS011;9058;52.018;4.202;2024-01-10T02:58:51;4.77;;;3.77;;
17864;SDS011;9058;52.018;4.202;2024-01-10T03:01:19;4.40;;;3.77;;
17864;SDS011;9058;52.018;4.202;2024-01-10T03:03:46;3.60;;;2.97;;
17864;SDS011;9058;52.018;4.202;2024-01-10T03:06:12;5.00;;;4.00;;
17864;SDS011;9058;52.018;4.202;2024-01-10T03:08:38;4.13;;;3.60;;
17864;SDS011;9058;52.018;4.202;2024-01-10T03:11:05;5.90;;;3.80;;
17864;SDS011;9058;52.018;4.202;2024-01-10T03:13:31;4.97;;;4.43;;
17864;SDS011;9058;52.018;4.202;2024-01-10T03:15:58;5.90;;;4.20;;
17864;SDS011;9058;52.018;4.202;2024-01-10T03:18:26;4.97;;;4.07;;
17864;SDS011;9058;52.018;4.202;2024-01-10T03:20:53;6.33;;;4.37;;
17864;SDS011;9058;52.018;4.202;2024-01-10T03:23:19;5.07;;;3.70;;
17864;SDS011;9058;52.018;4.202;2024-01-10T03:25:47;6.00;;;4.37;;
17864;SDS011;9058;52.018;4.202;2024-01-10T03:28:15;6.47;;;4.53;;
17864;SDS011;9058;52.018;4.202;2024-01-10T03:30:41;6.33;;;4.37;;
17864;SDS011;9058;52.018;4.202;2024-01-10T03:33:07;8.60;;;4.87;;
17864;SDS011;9058;52.018;4.202;2024-01-10T03:35:35;5.83;;;4.23;;
17864;SDS011;9058;52.018;4.202;2024-01-10T03:38:01;6.20;;;4.27;;
17864;SDS011;9058;52.018;4.202;2024-01-10T03:40:28;4.77;;;4.17;;
17864;SDS011;9058;52.018;4.202;2024-01-10T03:42:54;5.97;;;4.20;;
17864;SDS011;9058;52.018;4.202;2024-01-10T03:45:21;5.50;;;4.07;;
17864;SDS011;9058;52.018;4.202;2024-01-10T03:47:48;6.70;;;4.83;;
17864;SDS011;9058;52.018;4.202;2024-01-10T03:50:16;7.63;;;5.03;;
17864;SDS011;9058;52.018;4.202;2024-01-10T03:52:44;5.80;;;4.77;;
17864;SDS011;9058;52.018;4.202;2024-01-10T03:55:11;6.10;;;4.97;;
17864;SDS011;9058;52.018;4.202;2024-01-10T03:57:38;5.80;;;4.83;;
17864;SDS011;9058;52.018;4.202;2024-01-10T04:00:05;5.27;;;4.37;;
17864;SDS011;9058;52.018;4.202;2024-01-10T04:02:32;7.57;;;5.33;;
17864;SDS011;9058;52.018;4.202;2024-01-10T04:04:59;5.67;;;5.07;;
17864;SDS011;9058;52.018;4.202;2024-01-10T04:07:26;6.37;;;4.70;;
17864;SDS011;9058;52.018;4.202;2024-01-10T04:09:54;6.50;;;4.33;;
17864;SDS011;9058;52.018;4.202;2024-01-10T04:12:20;5.40;;;4.30;;
17864;SDS011;9058;52.018;4.202;2024-01-10T04:14:46;6.47;;;3.73;;
17864;SDS011;9058;52.018;4.202;2024-01-10T04:17:13;5.47;;;4.87;;
17864;SDS011;9058;52.018;4.202;2024-01-10T04:19:39;6.77;;;3.80;;
17864;SDS011;9058;52.018;4.202;2024-01-10T04:22:05;7.53;;;4.87;;
17864;SDS011;9058;52.018;4.202;2024-01-10T04:24:32;5.77;;;4.60;;
17864;SDS011;9058;52.018;4.202;2024-01-10T04:27:00;6.13;;;5.03;;
17864;SDS011;9058;52.018;4.202;2024-01-10T04:29:26;7.97;;;5.47;;
17864;SDS011;9058;52.018;4.202;2024-01-10T04:31:53;8.23;;;5.43;;
17864;SDS011;9058;52.018;4.202;2024-01-10T04:34:20;7.80;;;4.97;;
17864;SDS011;9058;52.018;4.202;2024-01-10T04:36:47;6.93;;;5.13;;
17864;SDS011;9058;52.018;4.202;2024-01-10T04:39:14;6.33;;;4.80;;
17864;SDS011;9058;52.018;4.202;2024-01-10T04:41:41;6.90;;;4.63;;
17864;SDS011;9058;52.018;4.202;2024-01-10T04:44:09;6.00;;;4.40;;
17864;SDS011;9058;52.018;4.202;2024-01-10T04:46:35;5.90;;;4.83;;
17864;SDS011;9058;52.018;4.202;2024-01-10T04:49:02;5.73;;;4.60;;
17864;SDS011;9058;52.018;4.202;2024-01-10T04:51:28;6.87;;;5.17;;
17864;SDS011;9058;52.018;4.202;2024-01-10T04:53:54;9.80;;;5.53;;
17864;SDS011;9058;52.018;4.202;2024-01-10T04:56:21;5.70;;;4.70;;
17864;SDS011;9058;52.018;4.202;2024-01-10T04:58:48;7.17;;;4.97;;
17864;SDS011;9058;52.018;4.202;2024-01-10T05:01:15;5.83;;;5.07;;
17864;SDS011;9058;52.018;4.202;2024-01-10T05:03:42;4.93;;;4.20;;
17864;SDS011;9058;52.018;4.202;2024-01-10T05:06:08;5.53;;;4.20;;
17864;SDS011;9058;52.018;4.202;2024-01-10T05:08:35;6.87;;;5.20;;
17864;SDS011;9058;52.018;4.202;2024-01-10T05:11:02;6.07;;;4.87;;
17864;SDS011;9058;52.018;4.202;2024-01-10T05:13:29;8.37;;;5.67;;
17864;SDS011;9058;52.018;4.202;2024-01-10T05:15:56;5.07;;;4.37;;
17864;SDS011;9058;52.018;4.202;2024-01-10T05:18:23;6.17;;;4.43;;
17864;SDS011;9058;52.018;4.202;2024-01-10T05:20:50;5.73;;;4.43;;
17864;SDS011;9058;52.018;4.202;2024-01-10T05:23:16;5.23;;;4.17;;
17864;SDS011;9058;52.018;4.202;2024-01-10T05:25:42;5.73;;;4.93;;
17864;SDS011;9058;52.018;4.202;2024-01-10T05:28:09;6.37;;;4.40;;
17864;SDS011;9058;52.018;4.202;2024-01-10T05:30:35;7.13;;;5.33;;
17864;SDS011;9058;52.018;4.202;2024-01-10T05:33:02;6.00;;;5.07;;
17864;SDS011;9058;52.018;4.202;2024-01-10T05:35:29;7.50;;;5.23;;
17864;SDS011;9058;52.018;4.202;2024-01-10T05:37:56;6.53;;;4.73;;
17864;SDS011;9058;52.018;4.202;2024-01-10T05:40:22;7.23;;;4.93;;
17864;SDS011;9058;52.018;4.202;2024-01-10T05:42:48;7.23;;;4.70;;
17864;SDS011;9058;52.018;4.202;2024-01-10T05:45:15;5.93;;;4.87;;
17864;SDS011;9058;52.018;4.202;2024-01-10T05:47:43;6.90;;;4.43;;
17864;SDS011;9058;52.018;4.202;2024-01-10T05:50:09;4.07;;;3.67;;
17864;SDS011;9058;52.018;4.202;2024-01-10T05:52:38;6.73;;;4.83;;
17864;SDS011;9058;52.018;4.202;2024-01-10T05:55:05;6.83;;;4.40;;
17864;SDS011;9058;52.018;4.202;2024-01-10T05:57:33;7.23;;;5.60;;
17864;SDS011;9058;52.018;4.202;2024-01-10T06:00:00;8.10;;;5.93;;
17864;SDS011;9058;52.018;4.202;2024-01-10T06:02:26;5.33;;;4.43;;
17864;SDS011;9058;52.018;4.202;2024-01-10T06:04:53;6.07;;;4.23;;
17864;SDS011;9058;52.018;4.202;2024-01-10T06:07:19;7.63;;;5.40;;
17864;SDS011;9058;52.018;4.202;2024-01-10T06:09:48;6.40;;;4.87;;
17864;SDS011;9058;52.018;4.202;2024-01-10T06:12:14;6.13;;;4.00;;
17864;SDS011;9058;52.018;4.202;2024-01-10T06:14:42;6.63;;;4.57;;
17864;SDS011;9058;52.018;4.202;2024-01-10T06:17:09;6.90;;;5.30;;
17864;SDS011;9058;52.018;4.202;2024-01-10T06:19:35;7.17;;;5.33;;
17864;SDS011;9058;52.018;4.202;2024-01-10T06:22:02;6.90;;;5.00;;
17864;SDS011;9058;52.018;4.202;2024-01-10T06:24:28;8.70;;;5.43;;
17864;SDS011;9058;52.018;4.202;2024-01-10T06:26:56;5.63;;;4.67;;
17864;SDS011;9058;52.018;4.202;2024-01-10T06:29:22;6.43;;;5.27;;
17864;SDS011;9058;52.018;4.202;2024-01-10T06:31:48;5.37;;;4.13;;
17864;SDS011;9058;52.018;4.202;2024-01-10T06:34:15;5.43;;;4.47;;
17864;SDS011;9058;52.018;4.202;2024-01-10T06:36:41;7.20;;;4.93;;
17864;SDS011;9058;52.018;4.202;2024-01-10T06:39:09;5.60;;;4.97;;
17864;SDS011;9058;52.018;4.202;2024-01-10T06:41:37;6.33;;;5.20;;
17864;SDS011;9058;52.018;4.202;2024-01-10T06:44:05;5.37;;;4.57;;
17864;SDS011;9058;52.018;4.202;2024-01-10T06:46:31;5.07;;;4.33;;
17864;SDS011;9058;52.018;4.202;2024-01-10T06:48:58;7.07;;;5.03;;
17864;SDS011;9058;52.018;4.202;2024-01-10T06:51:25;6.83;;;4.10;;
17864;SDS011;9058;52.018;4.202;2024-01-10T06:53:51;5.63;;;4.43;;
17864;SDS011;9058;52.018;4.202;2024-01-10T06:56:18;4.93;;;4.03;;
17864;SDS011;9058;52.018;4.202;2024-01-10T06:58:44;8.73;;;5.17;;
17864;SDS011;9058;52.018;4.202;2024-01-10T07:01:12;6.60;;;4.40;;
17864;SDS011;9058;52.018;4.202;2024-01-10T07:03:39;9.03;;;5.30;;
17864;SDS011;9058;52.018;4.202;2024-01-10T07:06:05;9.13;;;4.87;;
17864;SDS011;9058;52.018;4.202;2024-01-10T07:08:31;7.87;;;5.37;;
17864;SDS011;9058;52.018;4.202;2024-01-10T07:10:58;5.90;;;4.07;;
17864;SDS011;9058;52.018;4.202;2024-01-10T07:13:24;5.57;;;4.67;;
17864;SDS011;9058;52.018;4.202;2024-01-10T07:15:51;5.77;;;4.43;;
17864;SDS011;9058;52.018;4.202;2024-01-10T07:18:19;7.07;;;4.80;;
17864;SDS011;9058;52.018;4.202;2024-01-10T07:20:45;7.63;;;5.37;;
17864;SDS011;9058;52.018;4.202;2024-01-10T07:23:12;7.37;;;4.63;;
17864;SDS011;9058;52.018;4.202;2024-01-10T07:25:38;6.47;;;4.50;;
17864;SDS011;9058;52.018;4.202;2024-01-10T07:28:04;6.17;;;4.70;;
17864;SDS011;9058;52.018;4.202;2024-01-10T07:30:31;10.83;;;5.73;;
17864;SDS011;9058;52.018;4.202;2024-01-10T07:32:58;7.77;;;5.13;;
17864;SDS011;9058;52.018;4.202;2024-01-10T07:35:25;6.67;;;4.87;;
17864;SDS011;9058;52.018;4.202;2024-01-10T07:37:52;5.77;;;4.17;;
17864;SDS011;9058;52.018;4.202;2024-01-10T07:40:20;8.73;;;6.07;;
17864;SDS011;9058;52.018;4.202;2024-01-10T07:42:47;4.87;;;4.27;;
17864;SDS011;9058;52.018;4.202;2024-01-10T07:45:14;8.77;;;5.43;;
17864;SDS011;9058;52.018;4.202;2024-01-10T07:47:43;6.70;;;5.10;;
17864;SDS011;9058;52.018;4.202;2024-01-10T07:50:11;6.60;;;4.83;;
17864;SDS011;9058;52.018;4.202;2024-01-10T07:52:40;7.67;;;5.30;;
17864;SDS011;9058;52.018;4.202;2024-01-10T07:55:07;7.77;;;5.80;;
17864;SDS011;9058;52.018;4.202;2024-01-10T07:57:33;7.43;;;5.30;;
17864;SDS011;9058;52.018;4.202;2024-01-10T08:00:00;6.43;;;4.57;;
17864;SDS011;9058;52.018;4.202;2024-01-10T08:02:29;7.67;;;5.20;;
17864;SDS011;9058;52.018;4.202;2024-01-10T08:04:58;8.37;;;5.53;;
17864;SDS011;9058;52.018;4.202;2024-01-10T08:07:25;8.97;;;5.00;;
17864;SDS011;9058;52.018;4.202;2024-01-10T08:09:53;9.07;;;6.13;;
17864;SDS011;9058;52.018;4.202;2024-01-10T08:12:19;7.00;;;4.60;;
17864;SDS011;9058;52.018;4.202;2024-01-10T08:14:46;8.83;;;6.00;;
17864;SDS011;9058;52.018;4.202;2024-01-10T08:17:15;9.00;;;6.03;;
17864;SDS011;9058;52.018;4.202;2024-01-10T08:19:41;5.73;;;3.77;;
17864;SDS011;9058;52.018;4.202;2024-01-10T08:22:08;6.07;;;4.87;;
17864;SDS011;9058;52.018;4.202;2024-01-10T08:24:34;6.30;;;4.67;;
17864;SDS011;9058;52.018;4.202;2024-01-10T08:27:03;6.30;;;4.33;;
17864;SDS011;9058;52.018;4.202;2024-01-10T08:29:29;5.13;;;4.50;;
17864;SDS011;9058;52.018;4.202;2024-01-10T08:31:56;10.60;;;5.27;;
17864;SDS011;9058;52.018;4.202;2024-01-10T08:34:23;5.63;;;3.73;;
17864;SDS011;9058;52.018;4.202;2024-01-10T08:36:49;6.33;;;4.83;;
17864;SDS011;9058;52.018;4.202;2024-01-10T08:39:16;7.13;;;5.30;;
17864;SDS011;9058;52.018;4.202;2024-01-10T08:41:45;3.50;;;3.17;;
17864;SDS011;9058;52.018;4.202;2024-01-10T08:44:12;6.80;;;5.03;;
17864;SDS011;9058;52.018;4.202;2024-01-10T08:46:39;5.80;;;4.13;;
17864;SDS011;9058;52.018;4.202;2024-01-10T08:49:05;6.10;;;4.40;;
17864;SDS011;9058;52.018;4.202;2024-01-10T08:51:32;4.77;;;4.07;;
17864;SDS011;9058;52.018;4.202;2024-01-10T08:53:58;7.10;;;5.50;;
17864;SDS011;9058;52.018;4.202;2024-01-10T08:56:24;6.37;;;4.73;;
17864;SDS011;9058;52.018;4.202;2024-01-10T08:58:51;7.03;;;5.50;;
17864;SDS011;9058;52.018;4.202;2024-01-10T09:01:19;6.20;;;3.93;;
17864;SDS011;9058;52.018;4.202;2024-01-10T09:03:47;6.40;;;4.33;;
17864;SDS011;9058;52.018;4.202;2024-01-10T09:06:14;5.03;;;3.63;;
17864;SDS011;9058;52.018;4.202;2024-01-10T09:08:42;7.27;;;4.77;;
17864;SDS011;9058;52.018;4.202;2024-01-10T09:11:08;5.17;;;4.20;;
17864;SDS011;9058;52.018;4.202;2024-01-10T09:13:36;8.77;;;4.53;;
17864;SDS011;9058;52.018;4.202;2024-01-10T09:16:05;5.07;;;4.43;;
17864;SDS011;9058;52.018;4.202;2024-01-10T09:18:33;5.07;;;4.53;;
17864;SDS011;9058;52.018;4.202;2024-01-10T09:20:59;6.30;;;4.77;;
17864;SDS011;9058;52.018;4.202;2024-01-10T09:23:25;6.47;;;3.70;;
17864;SDS011;9058;52.018;4.202;2024-01-10T09:25:53;5.50;;;4.67;;
17864;SDS011;9058;52.018;4.202;2024-01-10T09:28:21;6.37;;;4.40;;
17864;SDS011;9058;52.018;4.202;2024-01-10T09:30:48;5.80;;;4.07;;
17864;SDS011;9058;52.018;4.202;2024-01-10T09:33:16;4.87;;;4.23;;
17864;SDS011;9058;52.018;4.202;2024-01-10T09:35:44;6.17;;;4.13;;
17864;SDS011;9058;52.018;4.202;2024-01-10T09:38:10;3.03;;;2.73;;
17864;SDS011;9058;52.018;4.202;2024-01-10T09:40:37;4.97;;;3.23;;
17864;SDS011;9058;52.018;4.202;2024-01-10T09:43:04;5.00;;;3.03;;
17864;SDS011;9058;52.018;4.202;2024-01-10T09:45:33;5.13;;;3.90;;
17864;SDS011;9058;52.018;4.202;2024-01-10T09:48:02;5.90;;;4.47;;
17864;SDS011;9058;52.018;4.202;2024-01-10T09:50:28;4.27;;;3.20;;
17864;SDS011;9058;52.018;4.202;2024-01-10T09:52:58;6.53;;;4.33;;
17864;SDS011;9058;52.018;4.202;2024-01-10T09:55:26;7.33;;;4.80;;
17864;SDS011;9058;52.018;4.202;2024-01-10T09:57:57;5.07;;;4.17;;
17864;SDS011;9058;52.018;4.202;2024-01-10T10:00:23;5.80;;;4.10;;
17864;SDS011;9058;52.018;4.202;2024-01-10T10:02:51;2.97;;;2.67;;
17864;SDS011;9058;52.018;4.202;2024-01-10T10:05:18;4.93;;;4.03;;
17864;SDS011;9058;52.018;4.202;2024-01-10T10:07:45;4.27;;;3.87;;
17864;SDS011;9058;52.018;4.202;2024-01-10T10:10:13;5.83;;;3.83;;
17864;SDS011;9058;52.018;4.202;2024-01-10T10:12:42;4.40;;;4.00;;
17864;SDS011;9058;52.018;4.202;2024-01-10T10:15:10;5.20;;;3.77;;
17864;SDS011;9058;52.018;4.202;2024-01-10T10:17:37;6.30;;;5.03;;
17864;SDS011;9058;52.018;4.202;2024-01-10T10:20:11;7.50;;;4.33;;
17864;SDS011;9058;52.018;4.202;2024-01-10T10:22:38;5.17;;;4.10;;
17864;SDS011;9058;52.018;4.202;2024-01-10T10:25:05;3.93;;;3.33;;
17864;SDS011;9058;52.018;4.202;2024-01-10T10:27:33;5.93;;;3.83;;
17864;SDS011;9058;52.018;4.202;2024-01-10T10:30:03;5.27;;;4.20;;
17864;SDS011;9058;52.018;4.202;2024-01-10T10:32:29;4.50;;;3.77;;
17864;SDS011;9058;52.018;4.202;2024-01-10T10:34:57;4.13;;;3.17;;
17864;SDS011;9058;52.018;4.202;2024-01-10T10:37:24;5.07;;;3.87;;
17864;SDS011;9058;52.018;4.202;2024-01-10T10:39:50;5.50;;;4.20;;
17864;SDS011;9058;52.018;4.202;2024-01-10T10:42:17;6.57;;;3.73;;
17864;SDS011;9058;52.018;4.202;2024-01-10T10:44:45;5.73;;;4.37;;
17864;SDS011;9058;52.018;4.202;2024-01-10T10:47:12;3.80;;;3.10;;
17864;SDS011;9058;52.018;4.202;2024-01-10T10:49:42;3.80;;;3.07;;
17864;SDS011;9058;52.018;4.202;2024-01-10T10:52:12;3.63;;;3.33;;
17864;SDS011;9058;52.018;4.202;2024-01-10T10:54:39;4.67;;;4.07;;
17864;SDS011;9058;52.018;4.202;2024-01-10T10:57:07;4.80;;;3.57;;
17864;SDS011;9058;52.018;4.202;2024-01-10T10:59:35;4.37;;;3.10;;
17864;SDS011;9058;52.018;4.202;2024-01-10T11:02:05;6.87;;;4.63;;
17864;SDS011;9058;52.018;4.202;2024-01-10T11:04:33;4.30;;;3.60;;
17864;SDS011;9058;52.018;4.202;2024-01-10T11:07:00;5.10;;;4.27;;
17864;SDS011;9058;52.018;4.202;2024-01-10T11:09:27;6.67;;;4.43;;
17864;SDS011;9058;52.018;4.202;2024-01-10T11:11:59;4.00;;;3.30;;
17864;SDS011;9058;52.018;4.202;2024-01-10T11:14:32;7.07;;;3.33;;
17864;SDS011;9058;52.018;4.202;2024-01-10T11:17:18;7.00;;;4.10;;
17864;SDS011;9058;52.018;4.202;2024-01-10T11:20:09;4.90;;;3.03;;
17864;SDS011;9058;52.018;4.202;2024-01-10T11:22:42;5.43;;;4.07;;
17864;SDS011;9058;52.018;4.202;2024-01-10T11:25:09;4.63;;;3.97;;
17864;SDS011;9058;52.018;4.202;2024-01-10T11:27:36;5.77;;;4.67;;
17864;SDS011;9058;52.018;4.202;2024-01-10T11:30:02;5.50;;;4.47;;
17864;SDS011;9058;52.018;4.202;2024-01-10T11:32:32;6.47;;;3.93;;
17864;SDS011;9058;52.018;4.202;2024-01-10T11:35:00;6.10;;;4.90;;
17864;SDS011;9058;52.018;4.202;2024-01-10T11:37:28;7.97;;;4.30;;
17864;SDS011;9058;52.018;4.202;2024-01-10T11:39:55;6.77;;;4.50;;
17864;SDS011;9058;52.018;4.202;2024-01-10T11:42:21;7.43;;;4.47;;
17864;SDS011;9058;52.018;4.202;2024-01-10T11:44:48;6.00;;;4.50;;
17864;SDS011;9058;52.018;4.202;2024-01-10T11:47:15;5.87;;;4.07;;
17864;SDS011;9058;52.018;4.202;2024-01-10T11:49:55;5.50;;;4.30;;
17864;SDS011;9058;52.018;4.202;2024-01-10T11:52:22;6.60;;;5.33;;
17864;SDS011;9058;52.018;4.202;2024-01-10T11:54:48;6.60;;;5.10;;
17864;SDS011;9058;52.018;4.202;2024-01-10T12:24:04;5.93;;;4.40;;
17864;SDS011;9058;52.018;4.202;2024-01-10T12:26:31;8.17;;;5.13;;
17864;SDS011;9058;52.018;4.202;2024-01-10T12:28:59;6.67;;;5.00;;
17864;SDS011;9058;52.018;4.202;2024-01-10T12:31:26;6.63;;;4.73;;
17864;SDS011;9058;52.018;4.202;2024-01-10T12:33:54;4.97;;;3.93;;
17864;SDS011;9058;52.018;4.202;2024-01-10T12:36:22;7.17;;;4.80;;
17864;SDS011;9058;52.018;4.202;2024-01-10T12:38:48;6.37;;;4.60;;
17864;SDS011;9058;52.018;4.202;2024-01-10T12:41:16;6.03;;;4.73;;
17864;SDS011;9058;52.018;4.202;2024-01-10T12:43:43;7.93;;;5.60;;
17864;SDS011;9058;52.018;4.202;2024-01-10T12:46:10;7.40;;;4.67;;
17864;SDS011;9058;52.018;4.202;2024-01-10T12:48:37;5.53;;;4.23;;
17864;SDS011;9058;52.018;4.202;2024-01-10T12:51:06;5.83;;;4.27;;
17864;SDS011;9058;52.018;4.202;2024-01-10T12:53:33;4.67;;;4.27;;
17864;SDS011;9058;52.018;4.202;2024-01-10T12:56:00;6.87;;;4.63;;
17864;SDS011;9058;52.018;4.202;2024-01-10T12:58:28;6.83;;;5.30;;
17864;SDS011;9058;52.018;4.202;2024-01-10T13:00:54;8.57;;;5.43;;
17864;SDS011;9058;52.018;4.202;2024-01-10T13:03:21;8.70;;;5.77;;
17864;SDS011;9058;52.018;4.202;2024-01-10T13:05:48;6.67;;;5.17;;
17864;SDS011;9058;52.018;4.202;2024-01-10T13:08:14;5.93;;;4.90;;
17864;SDS011;9058;52.018;4.202;2024-01-10T13:10:41;7.50;;;4.67;;
17864;SDS011;9058;52.018;4.202;2024-01-10T13:13:07;5.77;;;4.80;;
17864;SDS011;9058;52.018;4.202;2024-01-10T13:15:36;6.27;;;5.33;;
17864;SDS011;9058;52.018;4.202;2024-01-10T13:18:03;6.93;;;4.40;;
17864;SDS011;9058;52.018;4.202;2024-01-10T13:20:30;4.93;;;4.50;;
17864;SDS011;9058;52.018;4.202;2024-01-10T13:22:57;8.07;;;5.80;;
17864;SDS011;9058;52.018;4.202;2024-01-10T13:25:24;6.97;;;5.50;;
17864;SDS011;9058;52.018;4.202;2024-01-10T13:27:50;5.67;;;4.17;;
17864;SDS011;9058;52.018;4.202;2024-01-10T13:30:17;7.40;;;5.07;;
17864;SDS011;9058;52.018;4.202;2024-01-10T13:32:45;6.37;;;4.90;;
17864;SDS011;9058;52.018;4.202;2024-01-10T13:35:13;6.23;;;5.23;;
17864;SDS011;9058;52.018;4.202;2024-01-10T13:37:41;6.33;;;4.90;;
17864;SDS011;9058;52.018;4.202;2024-01-10T13:40:09;8.03;;;5.60;;
17864;SDS011;9058;52.018;4.202;2024-01-10T13:42:38;6.50;;;4.83;;
17864;SDS011;9058;52.018;4.202;2024-01-10T13:45:05;6.33;;;5.40;;
17864;SDS011;9058;52.018;4.202;2024-01-10T13:47:33;7.70;;;5.53;;
17864;SDS011;9058;52.018;4.202;2024-01-10T13:50:01;8.07;;;5.40;;
17864;SDS011;9058;52.018;4.202;2024-01-10T13:52:28;5.37;;;4.47;;
17864;SDS011;9058;52.018;4.202;2024-01-10T13:54:55;6.60;;;4.43;;
17864;SDS011;9058;52.018;4.202;2024-01-10T13:57:22;5.70;;;5.10;;
17864;SDS011;9058;52.018;4.202;2024-01-10T13:59:49;6.53;;;4.70;;
17864;SDS011;9058;52.018;4.202;2024-01-10T14:02:15;6.43;;;5.60;;
17864;SDS011;9058;52.018;4.202;2024-01-10T14:04:43;15.17;;;5.60;;
17864;SDS011;9058;52.018;4.202;2024-01-10T14:07:11;6.90;;;6.07;;
17864;SDS011;9058;52.018;4.202;2024-01-10T14:09:37;5.93;;;5.00;;
17864;SDS011;9058;52.018;4.202;2024-01-10T14:12:03;6.40;;;5.37;;
17864;SDS011;9058;52.018;4.202;2024-01-10T14:14:29;7.07;;;5.07;;
17864;SDS011;9058;52.018;4.202;2024-01-10T14:16:57;6.73;;;5.03;;
17864;SDS011;9058;52.018;4.202;2024-01-10T14:19:24;6.53;;;5.17;;
17864;SDS011;9058;52.018;4.202;2024-01-10T14:21:51;8.13;;;5.90;;
17864;SDS011;9058;52.018;4.202;2024-01-10T14:24:19;7.63;;;5.60;;
17864;SDS011;9058;52.018;4.202;2024-01-10T14:26:46;9.37;;;6.73;;
17864;SDS011;9058;52.018;4.202;2024-01-10T14:29:16;9.93;;;5.83;;
17864;SDS011;9058;52.018;4.202;2024-01-10T14:31:45;7.57;;;6.10;;
17864;SDS011;9058;52.018;4.202;2024-01-10T14:34:11;8.63;;;5.63;;
17864;SDS011;9058;52.018;4.202;2024-01-10T14:36:39;7.27;;;5.63;;
17864;SDS011;9058;52.018;4.202;2024-01-10T14:39:05;6.67;;;5.93;;
17864;SDS011;9058;52.018;4.202;2024-01-10T14:41:34;6.50;;;5.07;;
17864;SDS011;9058;52.018;4.202;2024-01-10T14:44:00;6.30;;;5.70;;
17864;SDS011;9058;52.018;4.202;2024-01-10T14:46:28;6.77;;;5.13;;
17864;SDS011;9058;52.018;4.202;2024-01-10T14:48:55;7.33;;;4.83;;
17864;SDS011;9058;52.018;4.202;2024-01-10T14:51:21;7.73;;;5.33;;
17864;SDS011;9058;52.018;4.202;2024-01-10T14:53:47;6.50;;;5.20;;
17864;SDS011;9058;52.018;4.202;2024-01-10T14:56:14;6.37;;;5.50;;
17864;SDS011;9058;52.018;4.202;2024-01-10T14:58:42;7.70;;;5.90;;
17864;SDS011;9058;52.018;4.202;2024-01-10T15:01:08;6.07;;;5.23;;
17864;SDS011;9058;52.018;4.202;2024-01-10T15:03:35;6.60;;;5.47;;
17864;SDS011;9058;52.018;4.202;2024-01-10T15:06:03;10.50;;;5.33;;
17864;SDS011;9058;52.018;4.202;2024-01-10T15:08:30;6.93;;;5.27;;
17864;SDS011;9058;52.018;4.202;2024-01-10T15:10:56;8.63;;;5.33;;
17864;SDS011;9058;52.018;4.202;2024-01-10T15:13:23;5.83;;;4.73;;
17864;SDS011;9058;52.018;4.202;2024-01-10T15:15:50;7.67;;;6.13;;
17864;SDS011;9058;52.018;4.202;2024-01-10T15:18:17;6.83;;;5.27;;
17864;SDS011;9058;52.018;4.202;2024-01-10T15:20:45;7.80;;;5.50;;
17864;SDS011;9058;52.018;4.202;2024-01-10T15:23:11;7.03;;;5.30;;
17864;SDS011;9058;52.018;4.202;2024-01-10T15:25:37;6.83;;;4.90;;